Terminal Aerodrome Forecast
Issued by NWS

Home | Current Version | Previous Version | Text Only | Print | Product List | Glossary On
Versions: 1 2 3 4 5 6 7 8 9 10 11 12 13 14 15 16 17 18 19 20 21
000
FTUS46 KEKA 291100
TAFCEC
TAF
KCEC 291124Z 2912/3012 00000KT 1SM BR VV002
     FM291600 VRB05KT 2SM BR OVC003
     FM292100 32008KT 6SM BR BKN005
     FM300300 35004KT 3SM BR BKN003=

USA.gov is the U.S. government's official web portal to all federal, state and local government web resources and services.